sensor_id;sensor_type;location;lat;lon;timestamp;pressure;altitude;pressure_sealevel;temperature;humidity
32761;BME280;19126;47.472;7.850;2023-02-17T00:01:21;97680.47;;;4.75;100.00
32761;BME280;19126;47.472;7.850;2023-02-17T00:03:48;97682.03;;;4.77;100.00
32761;BME280;19126;47.472;7.850;2023-02-17T00:06:18;97686.41;;;4.77;100.00
32761;BME280;19126;47.472;7.850;2023-02-17T00:08:45;97681.22;;;4.77;100.00
32761;BME280;19126;47.472;7.850;2023-02-17T00:11:14;97675.16;;;4.76;100.00
32761;BME280;19126;47.472;7.850;2023-02-17T00:13:41;97679.53;;;4.76;100.00
32761;BME280;19126;47.472;7.850;2023-02-17T00:16:09;97676.81;;;4.77;100.00
32761;BME280;19126;47.472;7.850;2023-02-17T00:18:36;97676.81;;;4.77;100.00
32761;BME280;19126;47.472;7.850;2023-02-17T00:21:11;97685.34;;;4.79;100.00
32761;BME280;19126;47.472;7.850;2023-02-17T00:23:38;97679.41;;;4.77;100.00
32761;BME280;19126;47.472;7.850;2023-02-17T00:26:05;97680.34;;;4.76;100.00
32761;BME280;19126;47.472;7.850;2023-02-17T00:28:34;97681.94;;;4.79;100.00
32761;BME280;19126;47.472;7.850;2023-02-17T00:31:05;97681.94;;;4.79;100.00
32761;BME280;19126;47.472;7.850;2023-02-17T00:33:32;97687.84;;;4.81;100.00
32761;BME280;19126;47.472;7.850;2023-02-17T00:36:02;97685.97;;;4.83;100.00
32761;BME280;19126;47.472;7.850;2023-02-17T00:38:30;97687.63;;;4.84;100.00
32761;BME280;19126;47.472;7.850;2023-02-17T00:40:57;97686.69;;;4.85;100.00
32761;BME280;19126;47.472;7.850;2023-02-17T00:43:24;97685.75;;;4.86;100.00
32761;BME280;19126;47.472;7.850;2023-02-17T00:45:53;97693.44;;;4.88;100.00
32761;BME280;19126;47.472;7.850;2023-02-17T00:48:21;97687.19;;;4.90;100.00
32761;BME280;19126;47.472;7.850;2023-02-17T00:50:48;97684.44;;;4.92;100.00
32761;BME280;19126;47.472;7.850;2023-02-17T00:53:15;97691.31;;;4.93;100.00
32761;BME280;19126;47.472;7.850;2023-02-17T00:55:42;97699.84;;;4.95;100.00
32761;BME280;19126;47.472;7.850;2023-02-17T00:58:09;97701.41;;;4.97;100.00
32761;BME280;19126;47.472;7.850;2023-02-17T01:00:36;97697.03;;;4.98;100.00
32761;BME280;19126;47.472;7.850;2023-02-17T01:03:05;97697.16;;;4.96;100.00
32761;BME280;19126;47.472;7.850;2023-02-17T01:05:33;97696.94;;;4.99;100.00
32761;BME280;19126;47.472;7.850;2023-02-17T01:08:00;97692.44;;;5.02;100.00
32761;BME280;19126;47.472;7.850;2023-02-17T01:10:27;97695.53;;;5.07;100.00
32761;BME280;19126;47.472;7.850;2023-02-17T01:12:54;97700.75;;;5.07;100.00
32761;BME280;19126;47.472;7.850;2023-02-17T01:15:21;97697.28;;;5.06;100.00
32761;BME280;19126;47.472;7.850;2023-02-17T01:17:51;97703.13;;;5.10;100.00
32761;BME280;19126;47.472;7.850;2023-02-17T01:20:20;97703.22;;;5.08;100.00
32761;BME280;19126;47.472;7.850;2023-02-17T01:22:52;97690.91;;;5.10;100.00
32761;BME280;19126;47.472;7.850;2023-02-17T01:25:20;97691.63;;;5.12;100.00
32761;BME280;19126;47.472;7.850;2023-02-17T01:27:48;97689.88;;;5.13;100.00
32761;BME280;19126;47.472;7.850;2023-02-17T01:30:15;97684.66;;;5.13;100.00
32761;BME280;19126;47.472;7.850;2023-02-17T01:32:42;97682.88;;;5.13;100.00
32761;BME280;19126;47.472;7.850;2023-02-17T01:35:10;97683.72;;;5.14;100.00
32761;BME280;19126;47.472;7.850;2023-02-17T01:37:41;97681.13;;;5.14;100.00
32761;BME280;19126;47.472;7.850;2023-02-17T01:40:10;97686.31;;;5.14;100.00
32761;BME280;19126;47.472;7.850;2023-02-17T01:42:38;97681.13;;;5.14;100.00
32761;BME280;19126;47.472;7.850;2023-02-17T01:45:32;97680.97;;;5.16;100.00
32761;BME280;19126;47.472;7.850;2023-02-17T01:48:02;97682.66;;;5.17;100.00
32761;BME280;19126;47.472;7.850;2023-02-17T01:50:33;97686.09;;;5.17;100.00
32761;BME280;19126;47.472;7.850;2023-02-17T01:53:02;97680.66;;;5.20;100.00
32761;BME280;19126;47.472;7.850;2023-02-17T01:55:30;97681.16;;;5.25;100.00
32761;BME280;19126;47.472;7.850;2023-02-17T01:58:02;97681.84;;;5.27;100.00
32761;BME280;19126;47.472;7.850;2023-02-17T02:00:30;97677.38;;;5.30;100.00
32761;BME280;19126;47.472;7.850;2023-02-17T02:02:59;97679.88;;;5.31;100.00
32761;BME280;19126;47.472;7.850;2023-02-17T02:05:26;97668.59;;;5.31;100.00
32761;BME280;19126;47.472;7.850;2023-02-17T02:07:54;97670.41;;;5.30;100.00
32761;BME280;19126;47.472;7.850;2023-02-17T02:10:23;97666.63;;;5.34;100.00
32761;BME280;19126;47.472;7.850;2023-02-17T02:12:50;97665.66;;;5.35;100.00
32761;BME280;19126;47.472;7.850;2023-02-17T02:15:20;97661.16;;;5.37;100.00
32761;BME280;19126;47.472;7.850;2023-02-17T02:18:02;97654.41;;;5.35;100.00
32761;BME280;19126;47.472;7.850;2023-02-17T02:21:04;97655.13;;;5.37;100.00
32761;BME280;19126;47.472;7.850;2023-02-17T02:30:17;97669.94;;;5.36;100.00
32761;BME280;19126;47.472;7.850;2023-02-17T02:33:02;97670.16;;;5.33;100.00
32761;BME280;19126;47.472;7.850;2023-02-17T02:35:36;97668.38;;;5.34;100.00
32761;BME280;19126;47.472;7.850;2023-02-17T02:38:10;97666.00;;;5.31;100.00
32761;BME280;19126;47.472;7.850;2023-02-17T02:40:41;97656.44;;;5.31;100.00
32761;BME280;19126;47.472;7.850;2023-02-17T02:43:09;97660.69;;;5.32;100.00
32761;BME280;19126;47.472;7.850;2023-02-17T02:45:37;97658.09;;;5.32;100.00
32761;BME280;19126;47.472;7.850;2023-02-17T02:48:06;97653.69;;;5.33;100.00
32761;BME280;19126;47.472;7.850;2023-02-17T02:50:48;97652.63;;;5.35;100.00
32761;BME280;19126;47.472;7.850;2023-02-17T02:53:42;97650.28;;;5.32;100.00
32761;BME280;19126;47.472;7.850;2023-02-17T02:56:15;97645.88;;;5.33;100.00
32761;BME280;19126;47.472;7.850;2023-02-17T02:58:48;97642.31;;;5.34;100.00
32761;BME280;19126;47.472;7.850;2023-02-17T03:01:26;97647.53;;;5.34;100.00
32761;BME280;19126;47.472;7.850;2023-02-17T03:04:01;97650.13;;;5.34;100.00
32761;BME280;19126;47.472;7.850;2023-02-17T03:06:34;97651.94;;;5.33;100.00
32761;BME280;19126;47.472;7.850;2023-02-17T03:09:05;97647.53;;;5.34;100.00
32761;BME280;19126;47.472;7.850;2023-02-17T03:11:35;97646.47;;;5.36;100.00
32761;BME280;19126;47.472;7.850;2023-02-17T03:14:04;97642.00;;;5.38;100.00
32761;BME280;19126;47.472;7.850;2023-02-17T03:16:32;97645.19;;;5.42;100.00
32761;BME280;19126;47.472;7.850;2023-02-17T03:19:01;97642.34;;;5.45;100.00
32761;BME280;19126;47.472;7.850;2023-02-17T03:21:32;97641.41;;;5.46;100.00
32761;BME280;19126;47.472;7.850;2023-02-17T03:24:00;97645.78;;;5.46;100.00
32761;BME280;19126;47.472;7.850;2023-02-17T03:26:27;97641.16;;;5.49;100.00
32761;BME280;19126;47.472;7.850;2023-02-17T03:28:54;97643.66;;;5.51;100.00
32761;BME280;19126;47.472;7.850;2023-02-17T03:31:22;97639.25;;;5.51;100.00
32761;BME280;19126;47.472;7.850;2023-02-17T03:33:49;97646.97;;;5.53;100.00
32761;BME280;19126;47.472;7.850;2023-02-17T03:36:17;97645.19;;;5.53;100.00
32761;BME280;19126;47.472;7.850;2023-02-17T03:38:47;97654.56;;;5.56;100.00
32761;BME280;19126;47.472;7.850;2023-02-17T03:41:14;97644.84;;;5.58;100.00
32761;BME280;19126;47.472;7.850;2023-02-17T03:43:41;97648.41;;;5.57;100.00
32761;BME280;19126;47.472;7.850;2023-02-17T03:46:10;97639.66;;;5.58;100.00
32761;BME280;19126;47.472;7.850;2023-02-17T03:48:37;97644.25;;;5.54;100.00
32761;BME280;19126;47.472;7.850;2023-02-17T03:51:12;97646.75;;;5.56;100.00
32761;BME280;19126;47.472;7.850;2023-02-17T03:53:41;97645.09;;;5.55;100.00
32761;BME280;19126;47.472;7.850;2023-02-17T03:56:08;97649.34;;;5.56;100.00
32761;BME280;19126;47.472;7.850;2023-02-17T03:58:35;97650.31;;;5.55;100.00
32761;BME280;19126;47.472;7.850;2023-02-17T04:01:03;97648.66;;;5.54;100.00
32761;BME280;19126;47.472;7.850;2023-02-17T04:03:30;97643.28;;;5.55;100.00
32761;BME280;19126;47.472;7.850;2023-02-17T04:05:57;97646.03;;;5.54;100.00
32761;BME280;19126;47.472;7.850;2023-02-17T04:08:24;97654.56;;;5.56;100.00
32761;BME280;19126;47.472;7.850;2023-02-17T04:10:54;97650.16;;;5.56;100.00
32761;BME280;19126;47.472;7.850;2023-02-17T04:13:21;97641.16;;;5.49;100.00
32761;BME280;19126;47.472;7.850;2023-02-17T04:15:49;97653.84;;;5.54;100.00
32761;BME280;19126;47.472;7.850;2023-02-17T04:18:17;97656.47;;;5.54;100.00
32761;BME280;19126;47.472;7.850;2023-02-17T04:20:46;97656.22;;;5.57;100.00
32761;BME280;19126;47.472;7.850;2023-02-17T04:23:14;97655.28;;;5.58;100.00
32761;BME280;19126;47.472;7.850;2023-02-17T04:25:41;97657.88;;;5.58;100.00
32761;BME280;19126;47.472;7.850;2023-02-17T04:28:10;97660.59;;;5.56;100.00
32761;BME280;19126;47.472;7.850;2023-02-17T04:30:37;97655.28;;;5.58;100.00
32761;BME280;19126;47.472;7.850;2023-02-17T04:33:04;97654.44;;;5.57;100.00
32761;BME280;19126;47.472;7.850;2023-02-17T04:35:31;97652.53;;;5.60;100.00
32761;BME280;19126;47.472;7.850;2023-02-17T04:37:58;97651.59;;;5.61;100.00
32761;BME280;19126;47.472;7.850;2023-02-17T04:40:25;97647.31;;;5.60;100.00
32761;BME280;19126;47.472;7.850;2023-02-17T04:42:53;97640.47;;;5.58;100.00
32761;BME280;19126;47.472;7.850;2023-02-17T04:45:22;97631.44;;;5.51;100.00
32761;BME280;19126;47.472;7.850;2023-02-17T04:47:49;97639.75;;;5.56;100.00
32761;BME280;19126;47.472;7.850;2023-02-17T04:50:17;97636.44;;;5.54;100.00
32761;BME280;19126;47.472;7.850;2023-02-17T04:52:44;97642.34;;;5.56;100.00
32761;BME280;19126;47.472;7.850;2023-02-17T04:55:11;97637.13;;;5.56;100.00
32761;BME280;19126;47.472;7.850;2023-02-17T04:57:38;97634.53;;;5.56;100.00
32761;BME280;19126;47.472;7.850;2023-02-17T05:00:07;97631.91;;;5.56;100.00
32761;BME280;19126;47.472;7.850;2023-02-17T05:02:36;97631.91;;;5.56;100.00
32761;BME280;19126;47.472;7.850;2023-02-17T05:05:03;97626.84;;;5.55;100.00
32761;BME280;19126;47.472;7.850;2023-02-17T05:07:34;97627.56;;;5.57;100.00
32761;BME280;19126;47.472;7.850;2023-02-17T05:10:13;97626.47;;;5.60;100.00
32761;BME280;19126;47.472;7.850;2023-02-17T05:12:40;97629.78;;;5.62;100.00
32761;BME280;19126;47.472;7.850;2023-02-17T05:15:09;97620.31;;;5.61;100.00
32761;BME280;19126;47.472;7.850;2023-02-17T05:17:37;97628.13;;;5.61;100.00
32761;BME280;19126;47.472;7.850;2023-02-17T05:20:06;97622.09;;;5.60;100.00
32761;BME280;19126;47.472;7.850;2023-02-17T05:22:47;97622.69;;;5.64;100.00
32761;BME280;19126;47.472;7.850;2023-02-17T05:25:15;97626.13;;;5.64;100.00
32761;BME280;19126;47.472;7.850;2023-02-17T05:27:43;97628.75;;;5.64;100.00
32761;BME280;19126;47.472;7.850;2023-02-17T05:30:10;97625.44;;;5.62;100.00
32761;BME280;19126;47.472;7.850;2023-02-17T05:32:39;97622.91;;;5.61;100.00
32761;BME280;19126;47.472;7.850;2023-02-17T05:35:07;97628.28;;;5.59;100.00
32761;BME280;19126;47.472;7.850;2023-02-17T05:37:38;97631.91;;;5.56;100.00
32761;BME280;19126;47.472;7.850;2023-02-17T05:40:06;97632.06;;;5.55;100.00
32761;BME280;19126;47.472;7.850;2023-02-17T05:42:33;97631.81;;;5.58;100.00
32761;BME280;19126;47.472;7.850;2023-02-17T05:45:08;97629.94;;;5.60;100.00
32761;BME280;19126;47.472;7.850;2023-02-17T05:47:39;97632.53;;;5.60;100.00
32761;BME280;19126;47.472;7.850;2023-02-17T05:50:07;97626.38;;;5.61;100.00
32761;BME280;19126;47.472;7.850;2023-02-17T05:52:43;97634.28;;;5.60;100.00
32761;BME280;19126;47.472;7.850;2023-02-17T05:55:10;97642.81;;;5.62;100.00
32761;BME280;19126;47.472;7.850;2023-02-17T05:57:38;97641.16;;;5.61;100.00
32761;BME280;19126;47.472;7.850;2023-02-17T06:00:06;97641.31;;;5.59;100.00
32761;BME280;19126;47.472;7.850;2023-02-17T06:02:33;97632.78;;;5.57;100.00
32761;BME280;19126;47.472;7.850;2023-02-17T06:05:05;97638.78;;;5.57;100.00
32761;BME280;19126;47.472;7.850;2023-02-17T06:07:32;97632.16;;;5.65;100.00
32761;BME280;19126;47.472;7.850;2023-02-17T06:10:00;97635.00;;;5.62;100.00
32761;BME280;19126;47.472;7.850;2023-02-17T06:12:27;97631.69;;;5.60;100.00
32761;BME280;19126;47.472;7.850;2023-02-17T06:14:54;97642.25;;;5.58;100.00
32761;BME280;19126;47.472;7.850;2023-02-17T06:17:24;97643.28;;;5.55;100.00
32761;BME280;19126;47.472;7.850;2023-02-17T06:19:51;97637.38;;;5.53;100.00
32761;BME280;19126;47.472;7.850;2023-02-17T06:22:20;97646.84;;;5.54;100.00
32761;BME280;19126;47.472;7.850;2023-02-17T06:24:47;97653.84;;;5.54;100.00
32761;BME280;19126;47.472;7.850;2023-02-17T06:27:14;97656.47;;;5.54;100.00
32761;BME280;19126;47.472;7.850;2023-02-17T06:29:44;97649.94;;;5.48;100.00
32761;BME280;19126;47.472;7.850;2023-02-17T06:32:12;97656.69;;;5.51;100.00
32761;BME280;19126;47.472;7.850;2023-02-17T06:34:39;97659.06;;;5.54;100.00
32761;BME280;19126;47.472;7.850;2023-02-17T06:37:06;97665.00;;;5.56;100.00
32761;BME280;19126;47.472;7.850;2023-02-17T06:39:35;97668.31;;;5.58;100.00
32761;BME280;19126;47.472;7.850;2023-02-17T06:42:05;97666.75;;;5.55;100.00
32761;BME280;19126;47.472;7.850;2023-02-17T06:44:32;97665.09;;;5.54;100.00
32761;BME280;19126;47.472;7.850;2023-02-17T06:47:02;97666.53;;;5.58;100.00
32761;BME280;19126;47.472;7.850;2023-02-17T06:49:29;97674.34;;;5.58;100.00
32761;BME280;19126;47.472;7.850;2023-02-17T06:51:56;97676.84;;;5.60;100.00
32761;BME280;19126;47.472;7.850;2023-02-17T06:54:23;97683.72;;;5.61;100.00
32761;BME280;19126;47.472;7.850;2023-02-17T06:56:51;97677.31;;;5.65;100.00
32761;BME280;19126;47.472;7.850;2023-02-17T06:59:18;97675.53;;;5.66;100.00
32761;BME280;19126;47.472;7.850;2023-02-17T07:01:45;97685.63;;;5.70;100.00
32761;BME280;19126;47.472;7.850;2023-02-17T07:04:14;97686.09;;;5.76;100.00
32761;BME280;19126;47.472;7.850;2023-02-17T07:06:41;97692.63;;;5.81;100.00
32761;BME280;19126;47.472;7.850;2023-02-17T07:09:08;97686.13;;;5.87;100.00
32761;BME280;19126;47.472;7.850;2023-02-17T07:11:38;97694.50;;;5.91;100.00
32761;BME280;19126;47.472;7.850;2023-02-17T07:14:08;97687.16;;;5.96;100.00
32761;BME280;19126;47.472;7.850;2023-02-17T07:16:35;97699.53;;;6.05;100.00
32761;BME280;19126;47.472;7.850;2023-02-17T07:19:04;97700.00;;;6.10;100.00
32761;BME280;19126;47.472;7.850;2023-02-17T07:21:31;97696.81;;;6.18;100.00
32761;BME280;19126;47.472;7.850;2023-02-17T07:23:58;97698.00;;;6.25;100.00
32761;BME280;19126;47.472;7.850;2023-02-17T07:26:43;97699.16;;;6.33;100.00
32761;BME280;19126;47.472;7.850;2023-02-17T07:29:11;97695.00;;;6.41;100.00
32761;BME280;19126;47.472;7.850;2023-02-17T07:31:38;97696.63;;;6.54;100.00
32761;BME280;19126;47.472;7.850;2023-02-17T07:34:05;97696.84;;;6.62;100.00
32761;BME280;19126;47.472;7.850;2023-02-17T07:36:32;97706.19;;;6.76;100.00
32761;BME280;19126;47.472;7.850;2023-02-17T07:39:03;97708.06;;;6.85;100.00
32761;BME280;19126;47.472;7.850;2023-02-17T07:41:34;97708.16;;;6.95;100.00
32761;BME280;19126;47.472;7.850;2023-02-17T07:44:02;97708.25;;;7.05;100.00
32761;BME280;19126;47.472;7.850;2023-02-17T07:46:30;97708.19;;;7.16;100.00
32761;BME280;19126;47.472;7.850;2023-02-17T07:48:57;97713.38;;;7.28;100.00
32761;BME280;19126;47.472;7.850;2023-02-17T07:51:28;97713.44;;;7.38;100.00
32761;BME280;19126;47.472;7.850;2023-02-17T07:53:55;97712.44;;;7.50;100.00
32761;BME280;19126;47.472;7.850;2023-02-17T07:56:22;97711.91;;;7.56;100.00
32761;BME280;19126;47.472;7.850;2023-02-17T07:58:50;97716.63;;;7.62;100.00
32761;BME280;19126;47.472;7.850;2023-02-17T08:01:19;97715.03;;;7.71;100.00
32761;BME280;19126;47.472;7.850;2023-02-17T08:03:48;97724.28;;;7.75;100.00
32761;BME280;19126;47.472;7.850;2023-02-17T08:06:17;97727.31;;;7.81;100.00
32761;BME280;19126;47.472;7.850;2023-02-17T08:08:44;97733.59;;;7.89;100.00
32761;BME280;19126;47.472;7.850;2023-02-17T08:11:30;97734.88;;;7.95;100.00
32761;BME280;19126;47.472;7.850;2023-02-17T08:14:22;97730.88;;;8.01;100.00
32761;BME280;19126;47.472;7.850;2023-02-17T08:16:50;97741.09;;;8.04;100.00
32761;BME280;19126;47.472;7.850;2023-02-17T08:19:20;97747.88;;;8.06;100.00
32761;BME280;19126;47.472;7.850;2023-02-17T08:21:51;97751.03;;;8.10;100.00
32761;BME280;19126;47.472;7.850;2023-02-17T08:24:18;97758.06;;;8.10;100.00
32761;BME280;19126;47.472;7.850;2023-02-17T08:26:46;97773.19;;;8.06;100.00
32761;BME280;19126;47.472;7.850;2023-02-17T08:29:13;97762.47;;;8.09;100.00
32761;BME280;19126;47.472;7.850;2023-02-17T08:31:41;97762.09;;;8.14;100.00
32761;BME280;19126;47.472;7.850;2023-02-17T08:34:10;97768.13;;;8.14;100.00
32761;BME280;19126;47.472;7.850;2023-02-17T08:36:38;97765.41;;;8.16;100.00
32761;BME280;19126;47.472;7.850;2023-02-17T08:39:11;97771.91;;;8.21;100.00
32761;BME280;19126;47.472;7.850;2023-02-17T08:41:40;97755.56;;;8.39;100.00
32761;BME280;19126;47.472;7.850;2023-02-17T08:44:14;97766.94;;;8.49;100.00
32761;BME280;19126;47.472;7.850;2023-02-17T08:46:41;97765.19;;;8.60;100.00
32761;BME280;19126;47.472;7.850;2023-02-17T08:49:09;97771.16;;;8.72;100.00
32761;BME280;19126;47.472;7.850;2023-02-17T08:51:39;97769.66;;;8.79;100.00
32761;BME280;19126;47.472;7.850;2023-02-17T08:54:07;97775.75;;;8.89;100.00
32761;BME280;19126;47.472;7.850;2023-02-17T08:56:36;97772.84;;;8.92;100.00
32761;BME280;19126;47.472;7.850;2023-02-17T08:59:14;97777.84;;;9.05;100.00
32761;BME280;19126;47.472;7.850;2023-02-17T09:01:42;97777.16;;;9.13;100.00
32761;BME280;19126;47.472;7.850;2023-02-17T09:04:10;97776.88;;;9.26;100.00
32761;BME280;19126;47.472;7.850;2023-02-17T09:06:44;97781.34;;;9.35;100.00
32761;BME280;19126;47.472;7.850;2023-02-17T09:09:13;97787.41;;;9.46;100.00
32761;BME280;19126;47.472;7.850;2023-02-17T09:11:41;97788.09;;;9.48;100.00
32761;BME280;19126;47.472;7.850;2023-02-17T09:14:16;97793.88;;;9.51;100.00
32761;BME280;19126;47.472;7.850;2023-02-17T09:16:43;97794.28;;;9.57;100.00
32761;BME280;19126;47.472;7.850;2023-02-17T09:19:10;97799.16;;;9.61;100.00
32761;BME280;19126;47.472;7.850;2023-02-17T09:21:39;97794.16;;;9.68;100.00
32761;BME280;19126;47.472;7.850;2023-02-17T09:24:08;97793.47;;;9.76;100.00
32761;BME280;19126;47.472;7.850;2023-02-17T09:26:35;97790.81;;;9.86;100.00
32761;BME280;19126;47.472;7.850;2023-02-17T09:29:13;97801.03;;;9.99;100.00
32761;BME280;19126;47.472;7.850;2023-02-17T09:31:41;97797.41;;;10.09;100.00
32761;BME280;19126;47.472;7.850;2023-02-17T09:34:08;97803.16;;;10.23;100.00
32761;BME280;19126;47.472;7.850;2023-02-17T09:36:38;97806.47;;;10.35;100.00
32761;BME280;19126;47.472;7.850;2023-02-17T09:39:05;97811.41;;;10.48;100.00
32761;BME280;19126;47.472;7.850;2023-02-17T09:41:40;97817.31;;;10.60;100.00
32761;BME280;19126;47.472;7.850;2023-02-17T09:44:16;97816.47;;;10.69;100.00
32761;BME280;19126;47.472;7.850;2023-02-17T09:46:48;97818.66;;;10.74;98.85
32761;BME280;19126;47.472;7.850;2023-02-17T09:49:19;97818.50;;;10.75;99.64
32761;BME280;19126;47.472;7.850;2023-02-17T09:51:50;97816.03;;;10.74;98.21
32761;BME280;19126;47.472;7.850;2023-02-17T09:54:24;97803.56;;;10.76;99.08
32761;BME280;19126;47.472;7.850;2023-02-17T09:56:55;97818.09;;;10.80;98.24
32761;BME280;19126;47.472;7.850;2023-02-17T09:59:25;97814.88;;;10.86;98.86
32761;BME280;19126;47.472;7.850;2023-02-17T10:01:54;97807.50;;;10.90;97.28
32761;BME280;19126;47.472;7.850;2023-02-17T10:04:25;97803.78;;;10.92;96.97
32761;BME280;19126;47.472;7.850;2023-02-17T10:06:56;97809.94;;;11.01;96.88
32761;BME280;19126;47.472;7.850;2023-02-17T10:09:29;97804.94;;;11.08;94.06
32761;BME280;19126;47.472;7.850;2023-02-17T10:12:01;97806.41;;;11.10;93.28
32761;BME280;19126;47.472;7.850;2023-02-17T10:14:32;97802.91;;;11.20;94.66
32761;BME280;19126;47.472;7.850;2023-02-17T10:17:03;97820.19;;;11.22;93.16
32761;BME280;19126;47.472;7.850;2023-02-17T10:19:32;97811.03;;;11.26;93.47
32761;BME280;19126;47.472;7.850;2023-02-17T10:22:06;97807.94;;;11.31;91.91
32761;BME280;19126;47.472;7.850;2023-02-17T10:24:34;97809.16;;;11.37;92.20
32761;BME280;19126;47.472;7.850;2023-02-17T10:30:06;97797.44;;;11.49;91.69
32761;BME280;19126;47.472;7.850;2023-02-17T10:32:44;97805.03;;;11.52;91.67
32761;BME280;19126;47.472;7.850;2023-02-17T10:35:15;97792.38;;;11.56;91.91
32761;BME280;19126;47.472;7.850;2023-02-17T10:37:46;97793.53;;;11.53;90.78
32761;BME280;19126;47.472;7.850;2023-02-17T10:40:18;97789.81;;;11.64;90.56
32761;BME280;19126;47.472;7.850;2023-02-17T10:42:48;97795.81;;;11.75;91.78
32761;BME280;19126;47.472;7.850;2023-02-17T10:45:23;97789.28;;;11.79;91.61
32761;BME280;19126;47.472;7.850;2023-02-17T10:47:55;97791.66;;;11.90;91.40
32761;BME280;19126;47.472;7.850;2023-02-17T10:50:24;97784.06;;;11.87;90.59
32761;BME280;19126;47.472;7.850;2023-02-17T10:52:53;97788.13;;;11.99;90.09
32761;BME280;19126;47.472;7.850;2023-02-17T10:55:24;97784.91;;;12.06;91.92
32761;BME280;19126;47.472;7.850;2023-02-17T10:58:02;97787.72;;;12.12;92.62
32761;BME280;19126;47.472;7.850;2023-02-17T11:00:30;97785.47;;;12.18;92.08
32761;BME280;19126;47.472;7.850;2023-02-17T11:02:57;97790.63;;;12.27;90.93
32761;BME280;19126;47.472;7.850;2023-02-17T11:05:26;97788.09;;;12.44;89.99
32761;BME280;19126;47.472;7.850;2023-02-17T11:24:40;97761.88;;;13.45;86.51
32761;BME280;19126;47.472;7.850;2023-02-17T11:27:08;97760.69;;;13.47;87.82
32761;BME280;19126;47.472;7.850;2023-02-17T11:29:37;97757.41;;;13.45;86.75
32761;BME280;19126;47.472;7.850;2023-02-17T11:34:36;97744.53;;;13.51;85.01
32761;BME280;19126;47.472;7.850;2023-02-17T11:37:18;97741.75;;;13.52;86.51
32761;BME280;19126;47.472;7.850;2023-02-17T11:42:21;97751.31;;;13.70;83.69
32761;BME280;19126;47.472;7.850;2023-02-17T11:44:51;97743.88;;;13.73;83.87
32761;BME280;19126;47.472;7.850;2023-02-17T11:47:22;97751.97;;;13.80;84.67
32761;BME280;19126;47.472;7.850;2023-02-17T11:50:18;97756.09;;;13.66;84.71
32761;BME280;19126;47.472;7.850;2023-02-17T11:52:55;97754.28;;;13.67;85.11
32761;BME280;19126;47.472;7.850;2023-02-17T11:55:28;97750.31;;;13.54;86.43
32761;BME280;19126;47.472;7.850;2023-02-17T11:58:11;97751.75;;;13.40;87.90
32761;BME280;19126;47.472;7.850;2023-02-17T12:06:13;97746.00;;;12.60;99.48
32761;BME280;19126;47.472;7.850;2023-02-17T12:08:52;97743.72;;;12.31;100.00
32761;BME280;19126;47.472;7.850;2023-02-17T12:11:27;97743.81;;;11.95;100.00
32761;BME280;19126;47.472;7.850;2023-02-17T12:14:10;97746.63;;;11.93;100.00
32761;BME280;19126;47.472;7.850;2023-02-17T12:16:47;97740.41;;;11.76;100.00
32761;BME280;19126;47.472;7.850;2023-02-17T12:19:36;97745.44;;;11.69;100.00
32761;BME280;19126;47.472;7.850;2023-02-17T12:22:15;97737.84;;;11.66;100.00
32761;BME280;19126;47.472;7.850;2023-02-17T12:25:21;97750.25;;;11.74;100.00
32761;BME280;19126;47.472;7.850;2023-02-17T12:27:58;97751.22;;;11.73;100.00
32761;BME280;19126;47.472;7.850;2023-02-17T12:40:54;97737.59;;;11.78;100.00
32761;BME280;19126;47.472;7.850;2023-02-17T12:43:24;97742.59;;;11.89;100.00
32761;BME280;19126;47.472;7.850;2023-02-17T12:45:57;97740.59;;;11.83;100.00
32761;BME280;19126;47.472;7.850;2023-02-17T12:48:28;97736.84;;;11.85;100.00
32761;BME280;19126;47.472;7.850;2023-02-17T12:50:59;97740.16;;;11.87;100.00
32761;BME280;19126;47.472;7.850;2023-02-17T12:53:48;97737.34;;;11.89;100.00
32761;BME280;19126;47.472;7.850;2023-02-17T13:17:03;97738.88;;;11.73;100.00
32761;BME280;19126;47.472;7.850;2023-02-17T13:19:32;97733.25;;;11.68;100.00
32761;BME280;19126;47.472;7.850;2023-02-17T13:22:00;97737.53;;;11.69;100.00
32761;BME280;19126;47.472;7.850;2023-02-17T13:24:32;97739.41;;;11.77;100.00
32761;BME280;19126;47.472;7.850;2023-02-17T13:27:10;97737.97;;;11.83;100.00
32761;BME280;19126;47.472;7.850;2023-02-17T13:29:37;97729.88;;;11.76;100.00
32761;BME280;19126;47.472;7.850;2023-02-17T13:32:09;97735.50;;;11.81;100.00
32761;BME280;19126;47.472;7.850;2023-02-17T13:34:39;97732.06;;;11.89;100.00
32761;BME280;19126;47.472;7.850;2023-02-17T13:37:16;97733.06;;;11.88;100.00
32761;BME280;19126;47.472;7.850;2023-02-17T13:39:44;97726.50;;;11.92;100.00
32761;BME280;19126;47.472;7.850;2023-02-17T13:42:32;97734.78;;;11.97;100.00
32761;BME280;19126;47.472;7.850;2023-02-17T13:45:00;97729.13;;;11.92;100.00
32761;BME280;19126;47.472;7.850;2023-02-17T13:47:33;97738.22;;;11.98;100.00
32761;BME280;19126;47.472;7.850;2023-02-17T13:50:01;97735.91;;;11.95;100.00
32761;BME280;19126;47.472;7.850;2023-02-17T13:52:30;97736.59;;;11.97;100.00
32761;BME280;19126;47.472;7.850;2023-02-17T13:54:58;97729.63;;;11.87;100.00
32761;BME280;19126;47.472;7.850;2023-02-17T13:57:29;97731.56;;;11.85;100.00
32761;BME280;19126;47.472;7.850;2023-02-17T14:00:09;97730.44;;;11.88;100.00
32761;BME280;19126;47.472;7.850;2023-02-17T14:02:46;97735.31;;;11.83;100.00
32761;BME280;19126;47.472;7.850;2023-02-17T14:05:17;97734.34;;;11.84;100.00
32761;BME280;19126;47.472;7.850;2023-02-17T14:07:45;97735.38;;;11.91;100.00
32761;BME280;19126;47.472;7.850;2023-02-17T14:10:20;97735.19;;;11.84;100.00
32761;BME280;19126;47.472;7.850;2023-02-17T14:12:48;97740.66;;;11.91;100.00
32761;BME280;19126;47.472;7.850;2023-02-17T14:15:16;97735.63;;;11.80;100.00
32761;BME280;19126;47.472;7.850;2023-02-17T14:17:44;97729.38;;;11.81;100.00
32761;BME280;19126;47.472;7.850;2023-02-17T14:20:31;97739.84;;;11.91;100.00
32761;BME280;19126;47.472;7.850;2023-02-17T14:23:03;97740.50;;;11.93;100.00